createdAt,value
2016-06-16T00:00:44.771Z,83.06
2016-06-16T00:01:44.666Z,83.06
2016-06-16T00:02:44.841Z,83.06
2016-06-16T00:03:44.906Z,83.16
2016-06-16T00:04:44.971Z,83.45
2016-06-16T00:05:44.990Z,82.97
2016-06-16T00:06:45.040Z,83.54
2016-06-16T00:07:45.090Z,82.97
2016-06-16T00:08:45.125Z,83.36
2016-06-16T00:09:45.190Z,82.97
2016-06-16T00:10:45.224Z,83.26
2016-06-16T00:11:45.118Z,83.26
2016-06-16T00:12:45.340Z,82.68
2016-06-16T00:13:45.375Z,82.82
2016-06-16T00:14:45.408Z,82.82
2016-06-16T00:15:45.458Z,82.82
2016-06-16T00:16:45.525Z,82.53
2016-06-16T00:17:45.543Z,83.06
2016-06-16T00:18:45.608Z,82.92
2016-06-16T00:19:45.643Z,82.06
2016-06-16T00:20:45.677Z,81.25
2016-06-16T00:21:45.727Z,81.77
2016-06-16T00:22:45.793Z,81.67
2016-06-16T00:23:45.811Z,81.29
2016-06-16T00:24:45.861Z,80.96
2016-06-16T00:25:46.208Z,81.44
2016-06-16T00:26:45.945Z,82.11
2016-06-16T00:27:45.995Z,82.01
2016-06-16T00:28:46.061Z,82.3
2016-06-16T00:29:46.095Z,82.3
2016-06-16T00:30:46.146Z,82.3
2016-06-16T00:31:46.180Z,82.3
2016-06-16T00:32:46.230Z,82.2
2016-06-16T00:33:46.294Z,82.87
2016-06-16T00:34:46.330Z,82.4
2016-06-16T00:35:46.364Z,82.49
2016-06-16T00:36:46.429Z,82.49
2016-06-16T00:37:46.323Z,82.97
2016-06-16T00:38:46.513Z,82.59
2016-06-16T00:39:46.407Z,82.4
2016-06-16T00:40:46.629Z,82.87
2016-06-16T00:41:46.633Z,83.36
2016-06-16T00:42:46.697Z,83.64
2016-06-16T00:43:46.732Z,83.36
2016-06-16T00:44:46.814Z,83.36
2016-06-16T00:45:46.832Z,83.64
2016-06-16T00:46:46.881Z,83.73
2016-06-16T00:47:46.932Z,83.93
2016-06-16T00:48:46.982Z,83.73
2016-06-16T00:49:47.001Z,83.16
2016-06-16T00:50:47.066Z,83.26
2016-06-16T00:51:47.116Z,83.83
2016-06-16T00:52:47.135Z,84.02
2016-06-16T00:53:47.184Z,83.73
2016-06-16T00:54:47.250Z,84.02
2016-06-16T00:55:47.285Z,84.02
2016-06-16T00:56:47.334Z,83.83
2016-06-16T00:57:47.369Z,83.83
2016-06-16T00:58:47.435Z,83.54
2016-06-16T00:59:47.485Z,83.64
2016-06-16T01:00:47.502Z,83.73
2016-06-16T01:01:47.569Z,83.64
2016-06-16T01:02:47.619Z,83.45
2016-06-16T01:03:47.637Z,83.54
2016-06-16T01:04:47.687Z,83.64
2016-06-16T01:05:47.753Z,84.12
2016-06-16T01:06:47.771Z,84.12
2016-06-16T01:07:47.821Z,84.12
2016-06-16T01:08:47.888Z,83.73
2016-06-16T01:09:47.937Z,83.73
2016-06-16T01:10:48.097Z,84.27
2016-06-16T01:11:48.100Z,84.69
2016-06-16T01:12:48.072Z,85.27
2016-06-16T01:13:48.089Z,84.79
2016-06-16T01:14:48.156Z,85.17
2016-06-16T01:15:48.206Z,84.98
2016-06-16T01:16:48.224Z,84.79
2016-06-16T01:17:48.274Z,85.27
2016-06-16T01:18:48.340Z,85.08
2016-06-16T01:19:48.374Z,84.69
2016-06-16T01:20:48.409Z,84.84
2016-06-16T01:21:48.474Z,84.98
2016-06-16T01:22:48.523Z,84.79
2016-06-16T01:23:48.573Z,84.79
2016-06-16T01:24:48.608Z,85.22
2016-06-16T01:25:48.674Z,84.75
2016-06-16T01:26:48.724Z,84.94
2016-06-16T01:27:48.727Z,85.27
2016-06-16T01:28:48.776Z,84.98
2016-06-16T01:29:48.858Z,84.84
2016-06-16T01:30:48.877Z,85.46
2016-06-16T01:31:48.926Z,85.13
2016-06-16T01:32:48.976Z,85.13
2016-06-16T01:33:49.011Z,84.94
2016-06-16T01:34:49.076Z,85.71
2016-06-16T01:35:49.095Z,85.8
2016-06-16T01:36:49.145Z,85.8
2016-06-16T01:37:49.194Z,85.8
2016-06-16T01:38:49.230Z,85.51
2016-06-16T01:39:49.279Z,85.99
2016-06-16T01:40:50.157Z,86.18
2016-06-16T01:41:49.379Z,85.99
2016-06-16T01:42:49.414Z,86.57
2016-06-16T01:43:49.479Z,86.47
2016-06-16T01:44:49.513Z,86.37
2016-06-16T01:45:49.548Z,85.89
2016-06-16T01:46:49.613Z,85.99
2016-06-16T01:47:49.647Z,86.18
2016-06-16T01:48:49.713Z,86.37
2016-06-16T01:49:49.748Z,86.18
2016-06-16T01:50:49.781Z,86.28
2016-06-16T01:51:49.847Z,86.18
2016-06-16T01:52:49.882Z,86.37
2016-06-16T01:53:49.916Z,86.76
2016-06-16T01:54:49.965Z,86.18
2016-06-16T01:55:50.093Z,85.99
2016-06-16T01:56:50.050Z,85.99
2016-06-16T01:57:50.085Z,86.28
2016-06-16T01:58:50.150Z,86.66
2016-06-16T01:59:50.184Z,85.89
2016-06-16T02:00:50.234Z,85.99
2016-06-16T02:01:50.300Z,85.89
2016-06-16T02:02:50.319Z,86.57
2016-06-16T02:03:50.368Z,86.66
2016-06-16T02:04:50.435Z,86.47
2016-06-16T02:05:50.452Z,86.76
2016-06-16T02:06:50.488Z,86.57
2016-06-16T02:07:50.583Z,86.18
2016-06-16T02:08:50.603Z,86.57
2016-06-16T02:09:50.637Z,86.57
2016-06-16T02:10:50.781Z,86.76
2016-06-16T02:11:50.596Z,86.57
2016-06-16T02:12:50.787Z,86.47
2016-06-16T02:13:50.837Z,86.76
2016-06-16T02:14:50.871Z,87.62
2016-06-16T02:15:50.921Z,87.23
2016-06-16T02:16:50.972Z,87.23
2016-06-16T02:17:51.005Z,87.86
2016-06-16T02:18:51.055Z,87.95
2016-06-16T02:19:51.106Z,88.05
2016-06-16T02:20:50.968Z,88.05
2016-06-16T02:21:51.173Z,88.05
2016-06-16T02:22:51.083Z,87.76
2016-06-16T02:23:51.258Z,88.34
2016-06-16T02:24:51.308Z,87.95
2016-06-16T02:25:51.389Z,88.15
2016-06-16T02:26:51.424Z,87.66
2016-06-16T02:27:51.302Z,88.72
2016-06-16T02:28:51.493Z,87.86
2016-06-16T02:29:51.542Z,88.15
2016-06-16T02:30:51.592Z,87.66
2016-06-16T02:31:51.626Z,87.09
2016-06-16T02:32:51.661Z,87.57
2016-06-16T02:33:51.741Z,87.09
2016-06-16T02:34:51.761Z,88.05
2016-06-16T02:35:51.811Z,87.86
2016-06-16T02:36:51.876Z,87.86
2016-06-16T02:37:51.911Z,88.05
2016-06-16T02:38:51.961Z,87.09
2016-06-16T02:39:51.839Z,87.48
2016-06-16T02:40:52.701Z,87.66
2016-06-16T02:41:52.235Z,87.19
2016-06-16T02:42:52.113Z,87.48
2016-06-16T02:43:52.163Z,87.57
2016-06-16T02:44:52.230Z,86.85
2016-06-16T02:45:52.264Z,87.57
2016-06-16T02:46:52.297Z,87.09
2016-06-16T02:47:52.363Z,87.66
2016-06-16T02:48:52.398Z,87.76
2016-06-16T02:49:52.463Z,87.76
2016-06-16T02:50:52.481Z,88.05
2016-06-16T02:51:52.547Z,88.43
2016-06-16T02:52:52.582Z,88.53
2016-06-16T02:53:52.616Z,88.34
2016-06-16T02:54:52.697Z,88.15
2016-06-16T02:55:52.717Z,88.91
2016-06-16T02:56:52.906Z,89.2
2016-06-16T02:57:52.815Z,88.72
2016-06-16T02:58:52.851Z,88.81
2016-06-16T02:59:52.932Z,89.67
2016-06-16T03:00:52.950Z,89.58
2016-06-16T03:01:52.985Z,89.67
2016-06-16T03:02:53.019Z,90.06
2016-06-16T03:03:53.100Z,89.96
2016-06-16T03:04:53.119Z,89.96
2016-06-16T03:05:53.169Z,90.34
2016-06-16T03:06:53.187Z,89.82
2016-06-16T03:07:53.238Z,89.73
2016-06-16T03:08:53.303Z,90.39
2016-06-16T03:09:53.337Z,90.88
2016-06-16T03:10:53.371Z,91.25
2016-06-16T03:11:53.453Z,91.06
2016-06-16T03:12:53.487Z,90.59
2016-06-16T03:13:53.521Z,90.97
2016-06-16T03:14:53.586Z,91.16
2016-06-16T03:15:53.637Z,90.88
2016-06-16T03:16:53.656Z,91.25
2016-06-16T03:17:53.706Z,91.16
2016-06-16T03:18:53.740Z,91.06
2016-06-16T03:19:53.805Z,91.45
2016-06-16T03:20:53.855Z,91.83
2016-06-16T03:21:53.874Z,91.83
2016-06-16T03:22:53.783Z,92.69
2016-06-16T03:23:53.989Z,92.4
2016-06-16T03:24:54.024Z,93.07
2016-06-16T03:25:54.058Z,93.36
2016-06-16T03:26:54.123Z,93.5
2016-06-16T03:27:54.143Z,93.45
2016-06-16T03:28:54.193Z,93.12
2016-06-16T03:29:54.242Z,93.55
2016-06-16T03:30:54.292Z,93.55
2016-06-16T03:31:54.342Z,93.84
2016-06-16T03:32:54.361Z,94.02
2016-06-16T03:33:54.411Z,94.17
2016-06-16T03:34:54.476Z,94.17
2016-06-16T03:35:54.495Z,94.07
2016-06-16T03:36:54.546Z,94.36
2016-06-16T03:37:54.610Z,94.17
2016-06-16T03:38:54.645Z,94.17
2016-06-16T03:39:54.679Z,93.79
2016-06-16T03:40:54.744Z,94.36
2016-06-16T03:41:54.701Z,94.36
2016-06-16T03:42:54.813Z,93.7
2016-06-16T03:43:54.878Z,93.79
2016-06-16T03:44:54.914Z,93.6
2016-06-16T03:45:54.947Z,93.55
2016-06-16T03:46:55.013Z,93.55
2016-06-16T03:47:55.063Z,93.45
2016-06-16T03:48:55.097Z,93.16
2016-06-16T03:49:55.147Z,93.55
2016-06-16T03:50:55.198Z,93.74
2016-06-16T03:51:55.216Z,93.36
2016-06-16T03:52:55.266Z,93.36
2016-06-16T03:53:55.316Z,93.26
2016-06-16T03:54:55.351Z,92.69
2016-06-16T03:55:55.415Z,92.79
2016-06-16T03:56:55.279Z,92.59
2016-06-16T03:57:55.500Z,92.4
2016-06-16T03:58:55.550Z,92.69
2016-06-16T03:59:55.631Z,92.11
2016-06-16T04:00:55.619Z,91.83
2016-06-16T04:01:55.684Z,91.49
2016-06-16T04:02:55.562Z,91.45
2016-06-16T04:03:55.754Z,91.93
2016-06-16T04:04:55.834Z,91.88
2016-06-16T04:05:55.868Z,91.11
2016-06-16T04:06:55.902Z,91.02
2016-06-16T04:07:55.953Z,91.11
2016-06-16T04:08:55.830Z,90.92
2016-06-16T04:09:56.052Z,91.11
2016-06-16T04:10:56.087Z,91.02
2016-06-16T04:11:56.372Z,90.92
2016-06-16T04:12:56.187Z,90.82
2016-06-16T04:13:56.220Z,90.63
2016-06-16T04:14:56.271Z,90.63
2016-06-16T04:15:56.321Z,90.44
2016-06-16T04:16:56.390Z,90.44
2016-06-16T04:17:56.449Z,91.02
2016-06-16T04:18:56.553Z,90.53
2016-06-16T04:19:56.643Z,91.49
2016-06-16T04:20:56.702Z,90.44
2016-06-16T04:21:56.780Z,90.63
2016-06-16T04:22:56.844Z,90.44
2016-06-16T04:23:56.924Z,90.53
2016-06-16T04:24:56.973Z,90.82
2016-06-16T04:25:57.021Z,90.88
2016-06-16T04:26:57.534Z,90.88
2016-06-16T04:27:57.136Z,91.02
2016-06-16T04:28:57.175Z,90.53
2016-06-16T04:29:57.261Z,90.63
2016-06-16T04:30:57.144Z,90.53
2016-06-16T04:31:57.323Z,90.06
2016-06-16T04:32:57.375Z,90.59
2016-06-16T04:33:57.427Z,90.53
2016-06-16T04:34:57.495Z,90.63
2016-06-16T04:35:57.530Z,90.68
2016-06-16T04:36:57.550Z,89.96
2016-06-16T04:37:57.617Z,90.01
2016-06-16T04:38:57.668Z,89.77
2016-06-16T04:39:57.687Z,90.16
2016-06-16T04:40:57.754Z,90.16
2016-06-16T04:41:57.819Z,90.06
2016-06-16T04:42:57.823Z,90.25
2016-06-16T04:43:57.873Z,89.67
2016-06-16T04:44:57.940Z,90.16
2016-06-16T04:45:57.818Z,89.1
2016-06-16T04:46:58.024Z,89.1
2016-06-16T04:47:58.058Z,88.53
2016-06-16T04:48:58.109Z,88.43
2016-06-16T04:49:58.174Z,87.86
2016-06-16T04:50:58.209Z,88.53
2016-06-16T04:51:58.243Z,87.95
2016-06-16T04:52:58.324Z,88.34
2016-06-16T04:53:58.358Z,88.62
2016-06-16T04:54:58.393Z,89.01
2016-06-16T04:55:58.443Z,88.34
2016-06-16T04:56:58.633Z,87.86
2016-06-16T04:57:58.512Z,87.66
2016-06-16T04:58:58.577Z,87.19
2016-06-16T04:59:58.658Z,86.71
2016-06-16T05:00:58.676Z,86.8
2016-06-16T05:01:58.711Z,87.38
2016-06-16T05:02:58.745Z,86.52
2016-06-16T05:03:58.811Z,86.8
2016-06-16T05:04:58.846Z,87.09
2016-06-16T05:05:58.863Z,86.71
2016-06-16T05:06:58.945Z,87
2016-06-16T05:07:58.980Z,86.9
2016-06-16T05:08:59.014Z,86.8
2016-06-16T05:09:58.907Z,86.14
2016-06-16T05:10:59.114Z,86.43
2016-06-16T05:12:00.148Z,85.94
2016-06-16T05:12:59.214Z,85.51
2016-06-16T05:13:59.249Z,85.66
2016-06-16T05:14:59.314Z,85.32
2016-06-16T05:15:59.348Z,85.13
2016-06-16T05:16:59.382Z,84.84
2016-06-16T05:17:59.432Z,85.13
2016-06-16T05:18:59.482Z,85.22
2016-06-16T05:19:59.517Z,84.65
2016-06-16T05:20:59.566Z,84.75
2016-06-16T05:21:59.632Z,84.46
2016-06-16T05:22:59.651Z,84.94
2016-06-16T05:23:59.700Z,84.46
2016-06-16T05:24:59.750Z,85.32
2016-06-16T05:25:59.800Z,84.84
2016-06-16T05:27:00.023Z,84.27
2016-06-16T05:27:59.901Z,84.27
2016-06-16T05:28:59.951Z,84.46
2016-06-16T05:29:59.968Z,84.65
2016-06-16T05:31:00.018Z,83.69
2016-06-16T05:32:00.085Z,84.08
2016-06-16T05:33:00.307Z,83.69
2016-06-16T05:34:00.200Z,83.54
2016-06-16T05:35:00.234Z,83.5
2016-06-16T05:36:00.237Z,83.64
2016-06-16T05:37:00.287Z,83.5
2016-06-16T05:38:00.353Z,83.5
2016-06-16T05:39:00.418Z,83.36
2016-06-16T05:40:00.453Z,82.87
2016-06-16T05:41:00.487Z,83.26
2016-06-16T05:42:00.537Z,82.3
2016-06-16T05:43:00.603Z,82.68
2016-06-16T05:44:00.606Z,81.92
2016-06-16T05:45:00.672Z,82.2
2016-06-16T05:46:00.722Z,82.2
2016-06-16T05:47:00.740Z,81.44
2016-06-16T05:48:00.789Z,81.34
2016-06-16T05:49:00.871Z,81.73
2016-06-16T05:50:00.890Z,81.82
2016-06-16T05:51:00.955Z,81.15
2016-06-16T05:52:00.974Z,81.38
2016-06-16T05:53:01.039Z,81.15
2016-06-16T05:54:01.089Z,80.52
2016-06-16T05:55:01.109Z,80.43
2016-06-16T05:56:01.159Z,80.24
2016-06-16T05:57:01.224Z,79.85
2016-06-16T05:58:01.259Z,79.85
2016-06-16T05:59:01.293Z,79.28
2016-06-16T06:00:01.420Z,79.08
2016-06-16T06:01:01.407Z,78.99
2016-06-16T06:02:01.442Z,79.37
2016-06-16T06:03:01.524Z,79.57
2016-06-16T06:04:01.542Z,78.7
2016-06-16T06:05:01.608Z,78.42
2016-06-16T06:06:01.642Z,78.55
2016-06-16T06:07:01.676Z,78.64
2016-06-16T06:08:01.727Z,78.17
2016-06-16T06:09:01.808Z,78.07
2016-06-16T06:10:01.811Z,78.07
2016-06-16T06:11:01.877Z,77.97
2016-06-16T06:12:01.770Z,76.54
2016-06-16T06:13:01.944Z,77.5
2016-06-16T06:14:01.994Z,77.21
2016-06-16T06:15:02.061Z,77.11
2016-06-16T06:16:02.095Z,77.88
2016-06-16T06:17:02.145Z,77.21
2016-06-16T06:18:02.179Z,77.11
2016-06-16T06:19:02.260Z,77.11
2016-06-16T06:20:02.295Z,77.11
2016-06-16T06:21:02.329Z,76.73
2016-06-16T06:22:02.395Z,76.92
2016-06-16T06:23:02.444Z,76.44
2016-06-16T06:24:02.464Z,77.02
2016-06-16T06:25:02.512Z,77.02
2016-06-16T06:26:02.579Z,76.19
2016-06-16T06:27:02.613Z,76.77
2016-06-16T06:28:02.663Z,76.29
2016-06-16T06:29:02.713Z,75.71
2016-06-16T06:30:02.747Z,76.39
2016-06-16T06:31:02.813Z,76.29
2016-06-16T06:32:02.847Z,76.29
2016-06-16T06:33:02.881Z,76.39
2016-06-16T06:34:02.962Z,75.71
2016-06-16T06:35:02.982Z,75.71
2016-06-16T06:36:03.032Z,74.98
2016-06-16T06:37:02.941Z,75.52
2016-06-16T06:38:03.131Z,75.27
2016-06-16T06:39:03.180Z,75.14
2016-06-16T06:40:03.231Z,74.66
2016-06-16T06:41:03.281Z,73.99
2016-06-16T06:42:04.190Z,74.22
2016-06-16T06:43:03.365Z,74.41
2016-06-16T06:44:03.243Z,74.02
2016-06-16T06:45:03.481Z,73.83
2016-06-16T06:46:03.515Z,73.45
2016-06-16T06:47:03.549Z,73.74
2016-06-16T06:48:03.599Z,73.45
2016-06-16T06:49:03.666Z,73.07
2016-06-16T06:50:03.684Z,73.65
2016-06-16T06:51:03.750Z,74.12
2016-06-16T06:52:03.799Z,73.65
2016-06-16T06:53:03.834Z,73.16
2016-06-16T06:54:03.883Z,73.49
2016-06-16T06:55:03.934Z,72.97
2016-06-16T06:56:03.999Z,72.72
2016-06-16T06:57:03.893Z,72.63
2016-06-16T06:58:04.068Z,72.63
2016-06-16T06:59:04.133Z,72.24
2016-06-16T07:00:04.230Z,70.93
2016-06-16T07:01:04.217Z,70.36
2016-06-16T07:02:04.267Z,70.32
2016-06-16T07:03:04.334Z,70.51
2016-06-16T07:04:04.352Z,70.42
2016-06-16T07:05:04.417Z,70.17
2016-06-16T07:06:04.467Z,69.49
2016-06-16T07:07:04.486Z,69.2
2016-06-16T07:08:04.536Z,68.73
2016-06-16T07:09:04.617Z,68.66
2016-06-16T07:10:04.651Z,67.22
2016-06-16T07:11:04.701Z,67.32
2016-06-16T07:12:05.157Z,67.03
2016-06-16T07:13:04.801Z,68.08
2016-06-16T07:14:04.835Z,67.13
2016-06-16T07:15:04.885Z,68.08
2016-06-16T07:16:04.952Z,66.9
2016-06-16T07:17:04.986Z,67.67
2016-06-16T07:18:05.036Z,67.13
2016-06-16T07:19:05.085Z,66.93
2016-06-16T07:20:05.120Z,66.93
2016-06-16T07:21:05.185Z,66.93
2016-06-16T07:22:05.220Z,66.16
2016-06-16T07:23:05.316Z,66.2
2016-06-16T07:24:05.351Z,66.3
2016-06-16T07:25:05.370Z,67.61
2016-06-16T07:26:05.419Z,67.9
2016-06-16T07:27:05.813Z,67.03
2016-06-16T07:28:05.519Z,66.93
2016-06-16T07:29:05.553Z,66.68
2016-06-16T07:30:05.620Z,66.64
2016-06-16T07:31:05.653Z,66.2
2016-06-16T07:32:05.703Z,66.77
2016-06-16T07:33:05.769Z,65.05
2016-06-16T07:34:05.804Z,65.14
2016-06-16T07:48:37.583Z,65.62
2016-06-16T07:48:37.646Z,62.55
2016-06-16T07:48:50.833Z,62.99
2016-06-16T07:49:50.883Z,61.65
2016-06-16T07:50:50.902Z,61.65
2016-06-16T07:51:50.967Z,62.03
2016-06-16T07:52:51.017Z,62.64
2016-06-16T07:53:51.067Z,62.45
2016-06-16T07:54:51.118Z,62.74
2016-06-16T07:55:51.183Z,61.36
2016-06-16T07:56:51.233Z,61.19
2016-06-16T07:57:51.267Z,61.29
2016-06-16T07:58:51.316Z,61.19
2016-06-16T07:59:51.352Z,60.42
2016-06-16T08:00:51.480Z,60.33
2016-06-16T08:01:51.467Z,58.6
2016-06-16T08:02:51.517Z,59.17
2016-06-16T08:03:51.567Z,58.79
2016-06-16T08:04:51.632Z,58.5
2016-06-16T08:05:51.651Z,58.12
2016-06-16T08:06:51.717Z,57.86
2016-06-16T08:07:51.767Z,58.7
2016-06-16T08:08:51.802Z,57.57
2016-06-16T08:09:51.851Z,57.57
2016-06-16T08:10:51.901Z,57.76
2016-06-16T08:11:51.856Z,58.15
2016-06-16T08:12:52.017Z,57.86
2016-06-16T08:13:52.051Z,58.24
2016-06-16T08:14:52.131Z,59.23
2016-06-16T08:15:52.166Z,57.21
2016-06-16T08:16:52.201Z,56.05
2016-06-16T08:17:52.250Z,56.41
2016-06-16T08:18:52.317Z,56.7
2016-06-16T08:19:52.178Z,56
2016-06-16T08:20:52.400Z,56.03
2016-06-16T08:21:52.467Z,56.1
2016-06-16T08:22:52.328Z,54.78
2016-06-16T08:23:52.566Z,54.3
2016-06-16T08:24:52.584Z,54.65
2016-06-16T08:25:52.649Z,54.75
2016-06-16T08:26:52.699Z,54.75
2016-06-16T08:27:52.750Z,55.13
2016-06-16T08:28:52.784Z,54.87
2016-06-16T08:29:52.866Z,54.87
2016-06-16T08:30:52.900Z,54.68
2016-06-16T08:31:52.950Z,54.87
2016-06-16T08:32:53.031Z,54.65
2016-06-16T08:33:53.065Z,54.78
2016-06-16T08:34:53.116Z,54.49
2016-06-16T08:35:53.166Z,53.94
2016-06-16T08:36:53.200Z,53.84
2016-06-16T08:37:53.265Z,53.65
2016-06-16T08:38:53.300Z,54.22
2016-06-16T08:39:53.350Z,54.2
2016-06-16T08:40:53.415Z,54.58
2016-06-16T08:41:53.465Z,54.49
2016-06-16T08:42:53.500Z,54.78
2016-06-16T08:43:53.410Z,54.78
2016-06-16T08:44:53.616Z,54.87
2016-06-16T08:45:53.634Z,54.3
2016-06-16T08:46:53.715Z,54.68
2016-06-16T08:47:53.749Z,54.58
2016-06-16T08:48:16.596Z,52.37
2016-06-16T08:48:29.393Z,52.59
2016-06-16T08:49:29.443Z,52.49
2016-06-16T08:50:29.494Z,51.34
2016-06-16T08:51:29.527Z,51.34
2016-06-16T08:52:29.608Z,51.72
2016-06-16T08:53:29.659Z,52.59
2016-06-16T08:54:29.678Z,52.59
2016-06-16T08:55:29.587Z,52.4
2016-06-16T08:56:29.855Z,53.84
2016-06-16T08:57:29.828Z,51.92
2016-06-16T08:58:29.892Z,52.52
2016-06-16T08:59:29.959Z,51.65
2016-06-16T09:00:29.993Z,51.46
2016-06-16T09:01:30.027Z,50.76
2016-06-16T09:02:30.108Z,50.69
2016-06-16T09:03:30.142Z,50.3
2016-06-16T09:04:30.192Z,49.43
2016-06-16T09:05:30.259Z,49.91
2016-06-16T09:06:30.308Z,50.21
2016-06-16T09:07:30.326Z,50.11
2016-06-16T09:08:30.392Z,50.01
2016-06-16T09:09:30.458Z,49.55
2016-06-16T09:10:30.477Z,48.4
2016-06-16T09:11:30.558Z,48.88
2016-06-16T09:12:30.576Z,49.07
2016-06-16T09:13:30.658Z,48.95
2016-06-16T09:14:30.708Z,49.17
2016-06-16T09:15:30.742Z,50.23
2016-06-16T09:16:30.807Z,49.84
2016-06-16T09:17:30.873Z,49.07
2016-06-16T09:18:30.892Z,48.79
2016-06-16T09:19:30.958Z,47.85
2016-06-16T09:20:31.023Z,46.2
2016-06-16T09:21:31.042Z,47.45
2016-06-16T09:22:31.107Z,47.48
2016-06-16T09:23:31.016Z,46.15
2016-06-16T09:24:31.192Z,46.34
2016-06-16T09:25:31.117Z,46.34
2016-06-16T09:26:31.307Z,46.15
2016-06-16T09:27:31.357Z,46.25
2016-06-16T09:28:31.438Z,46.25
2016-06-16T09:29:31.457Z,47.41
2016-06-16T09:30:31.507Z,47.67
2016-06-16T09:31:31.572Z,49
2016-06-16T09:32:31.606Z,48.97
2016-06-16T09:33:31.657Z,48.88
2016-06-16T09:34:31.722Z,49.37
2016-06-16T09:35:31.773Z,49.46
2016-06-16T09:36:31.651Z,48.52
2016-06-16T09:37:31.716Z,48.25
2016-06-16T09:38:31.906Z,48.54
2016-06-16T09:39:31.988Z,46.64
2016-06-16T09:40:32.022Z,45.57
2016-06-16T09:41:32.072Z,46.17
2016-06-16T09:42:32.153Z,45.89
2016-06-16T09:43:32.203Z,44.26
2016-06-16T09:44:32.222Z,41.19
2016-06-16T09:45:32.334Z,42.93
2016-06-16T09:46:32.354Z,41.56
2016-06-16T09:47:32.387Z,41.27
2016-06-16T09:48:32.437Z,40.98
2016-06-16T09:49:32.503Z,41.27
2016-06-16T09:50:32.521Z,41.29
2016-06-16T09:51:32.587Z,40.71
2016-06-16T09:52:32.637Z,39.84
2016-06-16T09:53:32.703Z,40.13
2016-06-16T09:54:32.767Z,39.84
2016-06-16T09:55:32.646Z,38.87
2016-06-16T09:56:32.930Z,39.09
2016-06-16T09:57:32.918Z,39.47
2016-06-16T09:58:32.952Z,38.7
2016-06-16T09:59:33.018Z,39.57
2016-06-16T10:00:33.083Z,39.09
2016-06-16T10:01:33.117Z,38.53
2016-06-16T10:02:33.168Z,37.96
2016-06-16T10:03:33.265Z,38.45
2016-06-16T10:04:33.284Z,38.06
2016-06-16T10:05:33.333Z,37.79
2016-06-16T10:06:33.383Z,39.12
2016-06-16T10:07:33.432Z,39.03
2016-06-16T10:08:34.233Z,38.64
2016-06-16T10:09:33.533Z,37.57
2016-06-16T10:10:33.583Z,38.25
2016-06-16T10:11:33.508Z,36.41
2016-06-16T10:12:33.698Z,36.62
2016-06-16T10:13:33.592Z,37.57
2016-06-16T10:14:33.674Z,37.77
2016-06-16T10:15:33.880Z,37.48
2016-06-16T10:16:33.913Z,37.09
2016-06-16T10:17:33.964Z,37.09
2016-06-16T10:18:33.841Z,37.36
2016-06-16T10:19:34.080Z,37.46
2016-06-16T10:20:34.114Z,35.52
2016-06-16T10:21:34.164Z,36.58
2016-06-16T10:22:34.089Z,36.98
2016-06-16T10:23:34.279Z,36.12
2016-06-16T10:24:34.329Z,35.93
2016-06-16T10:25:34.394Z,37.07
2016-06-16T10:26:34.460Z,36.88
2016-06-16T10:27:34.480Z,36.1
2016-06-16T10:28:34.560Z,36.7
2016-06-16T10:29:34.579Z,35.36
2016-06-16T10:30:34.504Z,34.8
2016-06-16T10:31:34.710Z,35.09
2016-06-16T10:32:34.760Z,36.06
2016-06-16T10:33:34.826Z,34.12
2016-06-16T10:34:34.875Z,34.2
2016-06-16T10:35:34.910Z,36.04
2016-06-16T10:36:34.991Z,37.4
2016-06-16T10:37:35.041Z,37.87
2016-06-16T10:38:35.091Z,37.77
2016-06-16T10:39:35.141Z,33.52
2016-06-16T10:40:35.191Z,34.01
2016-06-16T10:41:35.225Z,34.28
2016-06-16T10:42:35.275Z,35.15
2016-06-16T10:43:35.356Z,33.89
2016-06-16T10:44:35.391Z,34.77
2016-06-16T10:45:35.441Z,36.51
2016-06-16T10:46:35.522Z,36.02
2016-06-16T10:47:35.572Z,36.88
2016-06-16T10:48:35.606Z,37.17
2016-06-16T10:49:35.672Z,38.53
2016-06-16T10:50:35.737Z,38.62
2016-06-16T10:51:35.771Z,38.91
2016-06-16T10:52:35.821Z,38.71
2016-06-16T10:53:35.887Z,39.12
2016-06-16T10:54:35.922Z,36.14
2016-06-16T10:55:35.986Z,34.59
2016-06-16T10:56:36.069Z,34.78
2016-06-16T10:57:36.118Z,35.85
2016-06-16T10:58:36.153Z,35.93
2016-06-16T10:59:36.186Z,34.77
2016-06-16T11:00:36.268Z,35.35
2016-06-16T11:01:36.318Z,36.12
2016-06-16T11:02:36.352Z,36.32
2016-06-16T11:03:36.419Z,36.88
2016-06-16T11:04:36.468Z,37.67
2016-06-16T11:07:41.977Z,37.38
2016-06-16T11:09:32.671Z,38.04
2016-06-16T11:09:45.405Z,38.81
2016-06-16T11:10:45.283Z,37.75
2016-06-16T11:11:45.505Z,37.75
2016-06-16T11:13:36.043Z,38.23
2016-06-16T11:13:48.730Z,38.53
2016-06-16T11:14:48.796Z,38.04
2016-06-16T11:15:48.689Z,37.07
2016-06-16T11:16:48.864Z,36.32
2016-06-16T11:17:48.930Z,36.9
2016-06-16T11:18:48.995Z,35.27
2016-06-16T11:19:49.061Z,35.09
2016-06-16T11:20:49.112Z,35.19
2016-06-16T11:21:49.146Z,34.12
2016-06-16T11:22:49.196Z,34.16
2016-06-16T11:23:49.277Z,33.96
2016-06-16T11:24:49.311Z,32.79
2016-06-16T11:25:49.205Z,32.32
2016-06-16T11:26:49.441Z,33.11
2016-06-16T11:27:49.492Z,33.41
2016-06-16T11:28:49.526Z,33.57
2016-06-16T11:29:49.607Z,34.06
2016-06-16T11:30:49.657Z,35.13
2016-06-16T11:31:49.520Z,36.38
2016-06-16T11:32:49.741Z,36.27
2016-06-16T11:33:49.792Z,37.34
2016-06-16T11:34:49.872Z,37.82
2016-06-16T11:35:49.923Z,37.63
2016-06-16T11:36:49.801Z,37.43
2016-06-16T11:37:50.022Z,36
2016-06-16T11:38:50.087Z,37.07
2016-06-16T11:39:50.123Z,36
2016-06-16T11:40:50.173Z,35.05
2016-06-16T11:41:50.238Z,35.05
2016-06-16T11:42:50.272Z,34.95
2016-06-16T11:43:50.338Z,34.19
2016-06-16T11:44:50.403Z,33.53
2016-06-16T11:45:50.281Z,33.23
2016-06-16T11:46:50.363Z,33.23
2016-06-16T11:47:50.553Z,34.01
2016-06-16T11:48:50.634Z,33.61
2016-06-16T11:49:50.684Z,34.09
2016-06-16T11:50:50.718Z,33.33
2016-06-16T11:51:50.785Z,30.82
2016-06-16T11:52:50.850Z,30.74
2016-06-16T11:53:50.884Z,31.01
2016-06-16T11:54:50.934Z,31.71
2016-06-16T11:55:51.000Z,31.14
2016-06-16T11:56:50.940Z,30.75
2016-06-16T11:57:50.943Z,29.78
2016-06-16T11:58:51.166Z,31.04
2016-06-16T11:59:51.060Z,30.75
2016-06-16T12:00:51.296Z,30.54
2016-06-16T12:01:51.316Z,30.24
2016-06-16T12:02:51.381Z,30.05
2016-06-16T12:03:51.446Z,29.08
2016-06-16T12:04:51.481Z,28.42
2016-06-16T12:05:51.390Z,29.11
2016-06-16T12:06:51.612Z,27.75
2016-06-16T12:07:51.662Z,27.78
2016-06-16T12:08:51.712Z,27.87
2016-06-16T12:09:51.793Z,28.34
2016-06-16T12:10:51.843Z,28.53
2016-06-16T12:11:51.892Z,29.02
2016-06-16T12:12:51.786Z,27.75
2016-06-16T12:13:52.008Z,27.84
2016-06-16T12:14:52.090Z,28.63
2016-06-16T12:15:52.140Z,29.49
2016-06-16T12:16:52.173Z,28.4
2016-06-16T12:17:52.255Z,29.28
2016-06-16T12:18:52.321Z,28.03
2016-06-16T12:19:52.339Z,28.03
2016-06-16T12:20:52.452Z,26.95
2016-06-16T12:21:52.314Z,28.61
2016-06-16T12:22:52.505Z,30.14
2016-06-16T12:23:52.554Z,30.14
2016-06-16T12:24:52.652Z,30.52
2016-06-16T12:25:52.670Z,30.14
2016-06-16T12:26:52.735Z,29.46
2016-06-16T12:27:52.801Z,29.18
2016-06-16T12:28:52.836Z,28.9
2016-06-16T12:29:52.902Z,29.1
2016-06-16T12:30:52.967Z,28.14
2016-06-16T12:31:53.017Z,27.66
2016-06-16T12:32:53.067Z,27.95
2016-06-16T12:33:52.976Z,29.22
2016-06-16T12:34:53.198Z,29.89
2016-06-16T12:35:53.076Z,29.89
2016-06-16T12:36:53.313Z,29.88
2016-06-16T12:37:53.348Z,31.13
2016-06-16T12:38:53.273Z,31.71
2016-06-16T12:39:53.463Z,31.77
2016-06-16T12:40:53.514Z,31.48
2016-06-16T12:41:53.578Z,31.1
2016-06-16T12:42:53.644Z,29.93
2016-06-16T12:43:53.679Z,30.32
2016-06-16T12:44:53.743Z,30.69
2016-06-16T12:45:53.810Z,30.88
2016-06-16T12:46:53.829Z,30.32
2016-06-16T12:47:53.894Z,30.02
2016-06-16T12:48:53.803Z,29.83
2016-06-16T12:49:54.009Z,28.86
2016-06-16T12:50:54.075Z,30.38
2016-06-16T12:51:54.110Z,30.37
2016-06-16T12:52:54.176Z,30.76
2016-06-16T12:58:55.444Z,34.61
2016-06-16T12:59:55.509Z,33.54
2016-06-16T13:00:55.403Z,33.94
2016-06-16T13:01:55.594Z,33.94
2016-06-16T13:02:55.675Z,34.51
2016-06-16T13:03:55.710Z,34.8
2016-06-16T13:04:55.759Z,34.61
2016-06-16T13:05:55.840Z,33.65
2016-06-16T13:06:55.890Z,34.14
2016-06-16T13:07:55.956Z,35.28
2016-06-16T13:08:55.975Z,35.09
2016-06-16T13:09:56.040Z,35.09
2016-06-16T13:10:56.107Z,34.89
2016-06-16T13:11:55.969Z,34.72
2016-06-16T13:12:56.191Z,33.94
2016-06-16T13:13:56.256Z,34.02